This is the latest recevied weather packets stored in our database for station/object HP1PAR-14. If no packets are shown the sender has not sent any weather packets the latest 10 day(s).
| Time | Temp. | Humidity | Pressure | Rain* | Wind** | Luminosity | Snow |
|---|---|---|---|---|---|---|---|
| 1787941362 | 24.44° C | 75% | 1010.4 hPa | 0 mm | - | - | - |
| 1787939561 | 24.44° C | 77% | 1011 hPa | 0 mm | - | - | - |
| 1787937761 | 23.89° C | 79% | 1011.5 hPa | 0 mm | - | - | - |
| 1787935960 | 23.33° C | 81% | 1011.8 hPa | 0 mm | - | - | - |
| 1787935836 | 23.33° C | 81% | 1011.8 hPa | 0 mm | - | - | - |
| 1787934994 | 23.33° C | 82% | 1011.8 hPa | 0 mm | - | - | - |
| 1787933194 | 23.33° C | 84% | 1011.8 hPa | 0 mm | - | - | - |
| 1787931721 | 22.22° C | 88% | 1011.6 hPa | 0 mm | - | - | - |
| 1787929921 | 21.67° C | 91% | 1011.4 hPa | 0 mm | - | - | - |
| 1787928120 | 21.11° C | 93% | 1011.5 hPa | 0 mm | - | - | - |
| 1787927875 | 21.11° C | 93% | 1011.5 hPa | 0 mm | - | - | - |
| 1787926108 | 20.56° C | 95% | 1011.6 hPa | 0 mm | - | - | - |
| 1787925270 | 20.56° C | 96% | 1011.4 hPa | 0 mm | - | - | - |
| 1787923469 | 20° C | 98% | 1010.9 hPa | 0 mm | - | - | - |
| 1787921669 | 20° C | 99% | 1010.7 hPa | 0 mm | - | - | - |
| 1787919868 | 20° C | 100% | 1010.7 hPa | 0 mm | - | - | - |
| 1787918068 | 19.44° C | 99% | 1011.3 hPa | 0 mm | - | - | - |
| 1787916267 | 19.44° C | 98% | 1010.8 hPa | 0 mm | - | - | - |
| 1787914467 | 20° C | 98% | 1010.1 hPa | 0 mm | - | - | - |
| 1787912666 | 20° C | 99% | 1009.3 hPa | 0 mm | - | - | - |
| 1787910866 | 20° C | 99% | 1009 hPa | 0 mm | - | - | - |
| 1787909065 | 20.56° C | 98% | 1009.2 hPa | 0 mm | - | - | - |
| 1787907265 | 20.56° C | 98% | 1009.2 hPa | 0 mm | - | - | - |
| 1787905464 | 20.56° C | 99% | 1008.8 hPa | 0 mm | - | - | - |
| 1787903664 | 20.56° C | 99% | 1008.7 hPa | 0 mm | - | - | - |
* Rain latest hour (hover to see other rain measurements)
** Current wind speed in m/s (hover to see current wind gust speed)